Terminal Aerodrome Forecast
Issued by NWS

Home | Current Version | Previous Version | Graphics & Text | Print | Product List | Glossary Off
Versions: 1 2 3 4 5 6 7 8 9 10 11 12 13 14

000
FTUS42 KMHX 302320
TAFOAJ
TAF
KOAJ 302320Z 3100/3124 13008KT P6SM FEW030 SCT250
     FM310600 VRB03KT P6SM BKN130
     FM310800 20003KT 4SM BR BKN250
     FM311300 29004KT P6SM BKN250
     FM311700 32005KT P6SM SCT040
      AMD LTD TO CLD VIS AND WIND=

USA.gov is the U.S. government's official web portal to all federal, state and local government web resources and services.